Time;durP1;ratioP1;P1;durP2;ratioP2;P2;SDS_P1;SDS_P2;PMS_P1;PMS_P2;Temp;Humidity;BMP_temperature;BMP_pressure;BME280_temperature;BME280_humidity;BME280_pressure;Samples;Min_cycle;Max_cycle;Signal;HPM_P1;HPM_P2
2022/03/29 00:02:23;;;;;;;2.13;0.95;;;;;;;1.24;71.09;96915.09;4912284;29;20067;-62
2022/03/29 00:04:50;;;;;;;1.52;0.75;;;;;;;1.18;71.57;96907.41;4914202;29;20056;-62
2022/03/29 00:07:17;;;;;;;3.25;0.90;;;;;;;1.19;71.70;96914.50;4904279;29;20420;-62
2022/03/29 00:09:44;;;;;;;0.98;0.52;;;;;;;1.25;71.11;96905.72;4914097;29;20527;-62
2022/03/29 00:12:11;;;;;;;1.83;0.70;;;;;;;1.31;71.08;96914.56;4911940;29;20123;-62
2022/03/29 00:14:38;;;;;;;3.47;1.55;;;;;;;1.33;70.94;96918.56;4893445;29;20080;-61
2022/03/29 00:17:05;;;;;;;1.90;0.90;;;;;;;1.34;71.01;96913.88;4896940;29;20139;-62
2022/03/29 00:19:32;;;;;;;1.27;0.50;;;;;;;1.36;71.28;96928.06;4901541;29;20066;-61
2022/03/29 00:21:59;;;;;;;3.67;0.95;;;;;;;1.33;71.21;96923.25;4914311;29;20111;-62
2022/03/29 00:24:26;;;;;;;2.28;0.70;;;;;;;1.33;71.67;96929.50;4911913;29;20056;-62
2022/03/29 00:26:53;;;;;;;1.25;0.77;;;;;;;1.37;71.02;96924.97;4914258;29;20418;-61
2022/03/29 00:29:21;;;;;;;1.80;0.80;;;;;;;1.39;71.20;96924.63;4911942;29;20056;-62
2022/03/29 00:31:48;;;;;;;2.20;0.70;;;;;;;1.44;71.57;96933.44;4915885;29;20448;-62
2022/03/29 00:34:15;;;;;;;2.28;0.68;;;;;;;1.51;71.17;96922.72;4899329;29;20076;-64
2022/03/29 00:36:42;;;;;;;1.13;0.60;;;;;;;1.50;71.07;96918.38;4914238;29;20052;-64
2022/03/29 00:39:09;;;;;;;2.92;0.93;;;;;;;1.47;71.07;96919.06;4908203;29;20736;-64
2022/03/29 00:41:37;;;;;;;1.65;0.85;;;;;;;1.46;71.44;96922.94;4917516;29;20381;-64
2022/03/29 00:44:06;;;;;;;2.72;0.70;;;;;;;1.37;71.75;96919.50;4915344;29;20052;-65
2022/03/29 00:46:34;;;;;;;1.85;0.95;;;;;;;1.29;71.27;96905.88;4917547;29;20052;-64
2022/03/29 00:49:01;;;;;;;1.00;0.70;;;;;;;1.22;71.75;96924.78;4915751;29;20052;-64
2022/03/29 00:51:28;;;;;;;1.40;0.80;;;;;;;1.13;71.46;96924.06;4896748;29;20091;-64
2022/03/29 00:53:55;;;;;;;1.65;0.65;;;;;;;1.04;72.16;96920.59;4900089;29;20056;-64
2022/03/29 00:56:23;;;;;;;1.08;0.60;;;;;;;0.97;72.13;96929.34;4904781;29;20052;-64
2022/03/29 00:58:50;;;;;;;3.00;0.80;;;;;;;0.93;72.54;96919.41;4917563;29;20203;-65
2022/03/29 01:01:17;;;;;;;1.52;0.70;;;;;;;0.90;72.28;96911.84;4915232;29;20420;-64
2022/03/29 01:03:45;;;;;;;1.83;0.70;;;;;;;0.84;72.30;96922.22;4917561;29;20059;-63
2022/03/29 01:06:13;;;;;;;2.17;0.90;;;;;;;0.80;72.22;96915.78;4898122;29;20096;-63
2022/03/29 01:08:40;;;;;;;1.33;0.75;;;;;;;0.83;72.19;96922.56;4917588;29;20403;-64
2022/03/29 01:11:11;;;;;;;0.60;0.60;;;;;;;0.81;72.16;96922.06;4898360;29;20099;-64
2022/03/29 01:13:39;;;;;;;1.13;0.77;;;;;;;0.73;72.37;96926.47;4917256;29;20074;-64
2022/03/29 01:18:53;;;;;;;4.30;1.00;;;;;;;0.64;72.53;96922.19;4914957;29;20056;-65
2022/03/29 01:21:25;;;;;;;1.45;0.82;;;;;;;0.61;72.64;96931.88;4914712;29;20098;-64
2022/03/29 01:23:52;;;;;;;1.92;0.98;;;;;;;0.62;72.71;96925.25;4917293;29;20064;-62
2022/03/29 01:26:20;;;;;;;5.50;0.88;;;;;;;0.68;72.56;96929.41;4914773;29;20056;-61
2022/03/29 01:28:47;;;;;;;2.45;1.00;;;;;;;0.74;72.65;96928.06;4917001;29;20478;-62
2022/03/29 01:31:14;;;;;;;1.65;0.70;;;;;;;0.83;72.48;96923.34;4914829;29;20091;-62
2022/03/29 01:33:42;;;;;;;4.15;0.98;;;;;;;0.92;71.98;96935.00;4916928;29;20138;-61
2022/03/29 01:36:09;;;;;;;2.75;1.02;;;;;;;0.98;71.94;96939.16;4914519;29;20151;-62
2022/03/29 01:38:36;;;;;;;2.03;1.65;;;;;;;1.01;71.48;96943.16;4916757;29;20131;-62
2022/03/29 01:41:05;;;;;;;1.23;0.70;;;;;;;1.11;71.68;96932.63;4914566;29;20089;-62
2022/03/29 01:43:33;;;;;;;1.58;0.70;;;;;;;1.14;71.74;96931.94;4898285;29;20100;-62
2022/03/29 01:46:00;;;;;;;1.48;0.77;;;;;;;1.15;71.27;96930.81;4914390;29;20554;-62
2022/03/29 01:48:27;;;;;;;1.48;0.90;;;;;;;1.13;71.11;96941.28;4900089;29;20075;-63
2022/03/29 01:50:54;;;;;;;1.73;0.90;;;;;;;1.18;70.95;96943.81;4897785;29;20075;-62
2022/03/29 01:53:28;;;;;;;2.88;1.00;;;;;;;1.22;71.12;96950.22;4896217;29;20116;-63
2022/03/29 01:55:59;;;;;;;5.90;0.90;;;;;;;1.19;70.93;96945.41;4902429;29;20119;-63
2022/03/29 01:58:29;;;;;;;4.88;1.00;;;;;;;1.23;71.13;96957.31;4896459;29;20052;-62
2022/03/29 02:00:56;;;;;;;2.25;1.02;;;;;;;1.26;70.83;96951.16;4898649;29;20079;-62
2022/03/29 02:03:24;;;;;;;1.90;0.88;;;;;;;1.27;71.00;96951.94;4895877;29;20040;-63
2022/03/29 02:05:51;;;;;;;1.92;0.80;;;;;;;1.30;70.92;96945.81;4898605;29;20485;-67
2022/03/29 02:08:18;;;;;;;2.40;0.90;;;;;;;1.32;70.63;96951.75;4899110;29;20052;-63
2022/03/29 02:10:45;;;;;;;3.08;0.73;;;;;;;1.33;70.58;96945.94;4893801;29;20075;-62
2022/03/29 02:13:12;;;;;;;3.13;0.93;;;;;;;1.29;70.27;96945.00;4914282;29;20044;-62
2022/03/29 02:15:40;;;;;;;1.20;0.90;;;;;;;1.31;70.42;96958.38;4916239;29;20524;-62
2022/03/29 02:18:07;;;;;;;1.88;0.70;;;;;;;1.32;70.04;96960.78;4914019;29;20437;-65
2022/03/29 02:20:34;;;;;;;3.15;1.00;;;;;;;1.32;69.70;96955.28;4912342;29;20056;-62
2022/03/29 02:23:08;;;;;;;2.30;0.77;;;;;;;1.35;69.60;96960.09;4913865;29;20500;-62
2022/03/29 02:25:36;;;;;;;3.40;0.80;;;;;;;1.27;70.01;96952.75;4915974;29;20115;-62
2022/03/29 02:28:03;;;;;;;0.95;0.75;;;;;;;1.28;69.71;96961.78;4914152;29;20122;-62
2022/03/29 02:30:32;;;;;;;0.65;0.52;;;;;;;1.31;69.86;96961.91;4915778;29;20079;-62
2022/03/29 02:33:00;;;;;;;1.48;0.82;;;;;;;1.33;69.44;96959.63;4914356;29;20055;-62
2022/03/29 02:35:26;;;;;;;2.60;0.82;;;;;;;1.34;69.39;96958.50;4915451;29;20068;-62
2022/03/29 02:37:53;;;;;;;4.40;0.73;;;;;;;1.34;69.12;96955.78;4913996;29;20152;-62
2022/03/29 02:40:20;;;;;;;1.35;0.65;;;;;;;1.38;68.90;96947.66;4898632;29;20056;-62
2022/03/29 02:42:51;;;;;;;1.85;0.70;;;;;;;1.24;68.88;96953.44;4902359;29;20102;-62
2022/03/29 02:45:21;;;;;;;3.13;0.70;;;;;;;1.10;69.33;96969.31;4915270;29;20062;-62
2022/03/29 02:47:50;;;;;;;5.32;0.73;;;;;;;1.02;69.54;96967.47;4896304;29;20056;-62
2022/03/29 02:50:18;;;;;;;4.15;0.68;;;;;;;0.99;69.94;96983.75;4898272;29;20158;-62
2022/03/29 02:52:47;;;;;;;1.02;0.68;;;;;;;1.01;69.38;96974.06;4913192;29;20500;-63
2022/03/29 02:55:15;;;;;;;5.47;0.80;;;;;;;1.06;69.24;96973.88;4897968;29;20139;-63
2022/03/29 02:57:43;;;;;;;0.90;0.80;;;;;;;1.05;69.13;96976.94;4897866;29;20526;-61
2022/03/29 03:00:15;;;;;;;2.85;0.95;;;;;;;1.10;69.49;96972.06;4894742;29;20393;-63
2022/03/29 03:02:44;;;;;;;2.28;0.80;;;;;;;1.16;68.99;96973.47;4897752;29;20404;-63
2022/03/29 03:05:12;;;;;;;2.63;0.90;;;;;;;1.18;68.81;96971.19;4894921;29;20428;-62
2022/03/29 03:07:41;;;;;;;2.28;1.10;;;;;;;1.11;69.06;96970.94;4884367;29;20107;-62
2022/03/29 03:10:08;;;;;;;1.90;0.80;;;;;;;1.04;69.33;96973.38;4914606;29;20091;-62
2022/03/29 03:12:46;;;;;;;0.98;0.70;;;;;;;0.94;69.78;96982.00;4914832;29;20092;-62
2022/03/29 03:15:15;;;;;;;2.85;0.90;;;;;;;0.83;69.73;96969.84;4894286;29;20083;-63
2022/03/29 03:17:43;;;;;;;3.33;1.20;;;;;;;0.79;69.86;96979.88;4908600;29;20107;-62
2022/03/29 03:20:11;;;;;;;1.85;0.98;;;;;;;0.77;69.76;96971.19;4909293;29;20087;-63
2022/03/29 03:22:39;;;;;;;3.80;1.20;;;;;;;0.73;70.39;96981.19;4914579;29;20044;-63
2022/03/29 03:25:07;;;;;;;3.22;1.23;;;;;;;0.74;69.93;96988.25;4913033;29;20100;-63
2022/03/29 03:27:34;;;;;;;1.40;0.85;;;;;;;0.74;69.83;96988.25;4914613;29;20066;-62
2022/03/29 03:30:06;;;;;;;5.30;1.17;;;;;;;0.75;69.87;96991.81;4895359;29;20052;-62
2022/03/29 03:32:33;;;;;;;3.20;1.35;;;;;;;0.68;69.74;96991.53;4914795;29;20131;-61
2022/03/29 03:35:01;;;;;;;2.85;0.80;;;;;;;0.69;70.37;96999.41;4912314;29;20052;-61
2022/03/29 03:37:30;;;;;;;2.92;1.10;;;;;;;0.65;70.18;96992.97;4914783;29;20137;-62
2022/03/29 03:39:57;;;;;;;3.65;0.88;;;;;;;0.69;70.49;97002.16;4896165;29;20064;-62
2022/03/29 03:42:25;;;;;;;5.65;1.15;;;;;;;0.69;70.53;96996.69;4901188;29;20058;-62
2022/03/29 03:44:52;;;;;;;4.75;1.20;;;;;;;0.69;69.89;97002.16;4910508;29;20163;-62
2022/03/29 03:47:19;;;;;;;4.30;0.95;;;;;;;0.70;70.23;97017.41;4914546;29;20055;-61
2022/03/29 03:49:46;;;;;;;2.28;0.90;;;;;;;0.74;70.24;97015.59;4912029;29;20060;-62
2022/03/29 03:52:13;;;;;;;1.67;0.88;;;;;;;0.79;69.59;97017.34;4914475;29;20579;-61
2022/03/29 03:54:40;;;;;;;2.17;1.00;;;;;;;0.83;69.87;97029.25;4912136;29;20051;-62
2022/03/29 03:57:08;;;;;;;4.57;1.25;;;;;;;0.91;69.92;97020.19;4914155;29;20579;-63
2022/03/29 03:59:36;;;;;;;2.20;0.80;;;;;;;1.04;69.29;97030.88;4896040;29;20088;-62
2022/03/29 04:02:03;;;;;;;1.83;1.08;;;;;;;1.20;68.85;97037.38;4900085;29;20048;-63
2022/03/29 04:04:30;;;;;;;2.92;1.20;;;;;;;1.36;68.63;97019.19;4913319;29;20265;-62
2022/03/29 04:06:57;;;;;;;3.78;1.20;;;;;;;1.50;68.09;97033.44;4913544;29;20059;-63
2022/03/29 04:09:25;;;;;;;4.78;1.42;;;;;;;1.54;68.27;97030.84;4897659;29;20127;-62
2022/03/29 04:11:52;;;;;;;3.65;1.27;;;;;;;1.53;68.72;97040.97;4912223;29;20154;-62
2022/03/29 04:14:19;;;;;;;2.83;1.10;;;;;;;1.55;68.50;97035.16;4914311;29;20058;-63
2022/03/29 04:16:46;;;;;;;1.75;1.00;;;;;;;1.64;68.04;97030.41;4911600;29;20078;-64
2022/03/29 04:19:13;;;;;;;6.78;1.23;;;;;;;1.72;67.86;97035.03;4909426;29;20143;-64
2022/03/29 04:21:40;;;;;;;2.50;1.15;;;;;;;1.82;68.06;97040.06;4910134;29;20106;-63
2022/03/29 04:24:07;;;;;;;4.60;1.48;;;;;;;1.86;67.42;97032.78;4914061;29;20580;-63
2022/03/29 04:26:34;;;;;;;3.92;1.20;;;;;;;1.85;67.50;97045.69;4894623;29;20060;-63
2022/03/29 04:29:04;;;;;;;5.20;1.60;;;;;;;1.84;67.91;97046.03;4914052;29;20504;-63
2022/03/29 04:31:31;;;;;;;5.18;1.65;;;;;;;1.92;67.45;97052.56;4911799;29;20064;-62
2022/03/29 04:33:59;;;;;;;3.03;1.38;;;;;;;1.93;67.68;97052.22;4913942;29;20152;-63
2022/03/29 04:36:27;;;;;;;2.10;1.20;;;;;;;1.97;67.47;97044.09;4912059;29;20056;-64
2022/03/29 04:38:57;;;;;;;9.00;1.25;;;;;;;2.05;67.50;97054.19;4913701;29;20131;-62
2022/03/29 04:41:25;;;;;;;4.60;1.45;;;;;;;2.26;66.77;97054.94;4903722;29;20508;-63
2022/03/29 04:43:56;;;;;;;2.78;1.33;;;;;;;2.34;66.36;97051.31;4912696;29;20048;-62
2022/03/29 04:46:24;;;;;;;6.55;1.65;;;;;;;2.35;66.92;97058.38;4911869;29;20044;-62
2022/03/29 04:48:54;;;;;;;3.20;1.20;;;;;;;2.37;65.92;97056.91;4907377;29;20063;-64
2022/03/29 04:51:21;;;;;;;6.47;1.25;;;;;;;2.35;66.05;97059.19;4912385;29;20583;-63
2022/03/29 04:53:49;;;;;;;3.85;1.55;;;;;;;2.29;66.34;97067.97;4905248;29;20457;-63
2022/03/29 04:56:16;;;;;;;4.00;1.40;;;;;;;2.26;66.22;97061.25;4907940;29;20052;-62
2022/03/29 04:58:43;;;;;;;5.38;1.63;;;;;;;2.34;66.12;97056.78;4912385;29;20490;-62
2022/03/29 05:01:10;;;;;;;6.15;2.03;;;;;;;2.43;66.05;97071.22;4913642;29;20072;-64
2022/03/29 05:03:37;;;;;;;6.47;1.90;;;;;;;2.47;65.81;97058.41;4911528;29;20504;-62
2022/03/29 05:06:04;;;;;;;3.53;1.33;;;;;;;2.44;65.33;97061.81;4913713;29;20051;-63
2022/03/29 05:08:31;;;;;;;5.43;1.20;;;;;;;2.41;66.38;97070.75;4903656;29;20084;-63
2022/03/29 05:10:58;;;;;;;3.38;1.40;;;;;;;2.48;65.83;97076.47;4913332;29;20056;-63
2022/03/29 05:13:25;;;;;;;3.13;0.90;;;;;;;2.56;65.46;97070.06;4911425;29;20055;-61
2022/03/29 05:15:52;;;;;;;3.42;1.35;;;;;;;2.59;65.26;97074.88;4913302;29;20059;-63
2022/03/29 05:18:19;;;;;;;6.55;1.75;;;;;;;2.64;64.81;97072.75;4914696;29;20405;-63
2022/03/29 05:20:46;;;;;;;7.25;1.67;;;;;;;2.58;65.21;97070.56;4900682;29;20401;-62
2022/03/29 05:23:16;;;;;;;4.00;1.60;;;;;;;2.70;64.75;97081.53;4915067;29;20075;-63
2022/03/29 05:25:43;;;;;;;2.72;1.42;;;;;;;2.81;64.35;97069.75;4899826;29;20493;-63
2022/03/29 05:28:10;;;;;;;4.70;1.48;;;;;;;2.90;64.29;97075.16;4899186;29;20139;-62
2022/03/29 05:30:37;;;;;;;5.65;1.85;;;;;;;2.97;64.13;97075.38;4888369;29;20062;-63
2022/03/29 05:33:04;;;;;;;2.55;1.40;;;;;;;3.04;63.78;97070.09;4916912;29;20052;-63
2022/03/29 05:35:33;;;;;;;7.57;1.75;;;;;;;3.43;63.16;97077.59;4915483;29;20143;-63
2022/03/29 05:38:02;;;;;;;2.97;1.08;;;;;;;4.08;61.63;97079.16;4900091;29;20056;-62
2022/03/29 05:40:30;;;;;;;5.43;1.33;;;;;;;3.97;61.54;97069.78;4910537;29;20084;-63
2022/03/29 05:42:57;;;;;;;3.78;1.23;;;;;;;3.82;61.57;97063.06;4899593;29;20044;-62
2022/03/29 05:45:24;;;;;;;5.35;1.20;;;;;;;3.54;61.93;97067.75;4913565;29;20132;-63
2022/03/29 05:50:39;;;;;;;3.47;1.23;;;;;;;3.53;62.81;97080.69;4915667;29;20490;-63
2022/03/29 05:53:06;;;;;;;3.50;1.50;;;;;;;3.88;61.18;97078.19;4916885;29;20072;-62
2022/03/29 05:55:34;;;;;;;3.78;1.50;;;;;;;3.67;61.88;97094.03;4914405;29;20055;-63
2022/03/29 05:58:02;;;;;;;4.07;1.30;;;;;;;3.54;61.51;97089.72;4916465;29;20139;-63
2022/03/29 06:00:31;;;;;;;2.90;1.20;;;;;;;3.43;61.66;97110.59;4914176;29;20103;-61
2022/03/29 06:02:58;;;;;;;2.22;0.93;;;;;;;3.17;62.03;97119.19;4901807;29;20044;-63
2022/03/29 06:05:25;;;;;;;3.00;0.80;;;;;;;2.91;62.98;97135.22;4913890;29;20060;-63
2022/03/29 06:07:52;;;;;;;1.35;0.80;;;;;;;2.38;63.99;97135.31;4915953;29;20060;-63
2022/03/29 06:10:19;;;;;;;1.65;0.70;;;;;;;1.97;64.75;97151.03;4900484;29;20066;-63
2022/03/29 06:12:47;;;;;;;1.00;0.65;;;;;;;1.62;65.97;97161.44;4889995;29;20517;-63
2022/03/29 06:15:15;;;;;;;0.80;0.70;;;;;;;1.12;67.91;97175.09;4913714;29;20103;-64
2022/03/29 06:17:42;;;;;;;1.55;0.80;;;;;;;0.95;69.23;97174.41;4916492;29;20154;-62
2022/03/29 06:20:10;;;;;;;0.98;0.55;;;;;;;0.82;69.61;97180.88;4903676;29;20084;-62
2022/03/29 06:22:43;;;;;;;4.88;0.90;;;;;;;0.93;69.34;97182.94;4898809;29;20076;-63
2022/03/29 06:25:12;;;;;;;4.20;0.95;;;;;;;1.10;69.21;97188.31;4898326;29;20048;-63
2022/03/29 06:27:40;;;;;;;2.55;1.10;;;;;;;1.15;68.58;97203.75;4898838;29;20061;-64
2022/03/29 06:30:08;;;;;;;2.90;1.00;;;;;;;1.22;68.74;97202.09;4897941;29;20061;-64
2022/03/29 06:32:49;;;;;;;4.22;1.02;;;;;;;1.33;68.33;97202.56;4909459;29;20056;-61
2022/03/29 06:35:21;;;;;;;1.83;0.90;;;;;;;1.44;67.47;97210.06;4880925;29;20088;-63
2022/03/29 06:37:51;;;;;;;1.88;0.98;;;;;;;1.68;67.05;97214.91;4915664;29;20107;-62
2022/03/29 06:40:20;;;;;;;3.15;1.15;;;;;;;1.81;66.40;97219.38;4901216;29;20106;-62
2022/03/29 06:42:48;;;;;;;4.32;1.23;;;;;;;1.92;66.01;97228.00;4905870;29;20182;-63
2022/03/29 06:45:15;;;;;;;3.38;1.45;;;;;;;2.01;66.20;97223.25;4909593;29;20138;-63
2022/03/29 06:47:43;;;;;;;30.25;9.02;;;;;;;2.17;65.40;97227.00;4915489;29;20578;-63
2022/03/29 06:50:11;;;;;;;4.35;2.17;;;;;;;2.31;64.74;97233.03;4902165;29;20048;-63
2022/03/29 06:52:39;;;;;;;3.30;1.48;;;;;;;2.38;64.18;97227.78;4892967;29;20054;-65
2022/03/29 06:55:10;;;;;;;2.80;1.00;;;;;;;2.40;64.01;97225.50;4893404;29;20104;-65
2022/03/29 06:57:38;;;;;;;3.25;1.05;;;;;;;2.56;63.45;97221.00;4896964;29;20543;-64
2022/03/29 07:00:09;;;;;;;1.73;0.95;;;;;;;2.69;63.14;97222.66;4881699;29;20465;-65
2022/03/29 07:02:36;;;;;;;17.23;1.45;;;;;;;2.85;62.48;97221.69;4897721;29;20186;-64
2022/03/29 07:05:06;;;;;;;6.90;1.55;;;;;;;3.08;61.55;97231.09;4896769;29;20126;-65
2022/03/29 07:07:33;;;;;;;1.85;1.20;;;;;;;3.29;61.14;97236.53;4893984;29;20048;-65
2022/03/29 07:12:49;;;;;;;2.40;1.00;;;;;;;3.48;57.96;97234.03;4896693;29;20084;-65
2022/03/29 07:15:17;;;;;;;1.67;0.80;;;;;;;4.31;55.48;97246.09;4906955;29;20060;-65
2022/03/29 07:17:45;;;;;;;1.45;0.90;;;;;;;5.62;53.71;97246.56;4894442;29;20052;-65
2022/03/29 07:20:15;;;;;;;1.83;0.93;;;;;;;5.86;52.14;97253.09;4894450;29;20044;-65
2022/03/29 07:22:44;;;;;;;0.93;0.70;;;;;;;5.41;51.83;97242.47;4893201;29;20049;-65
2022/03/29 07:25:12;;;;;;;1.20;0.73;;;;;;;5.11;53.40;97252.31;4875456;29;20409;-65
2022/03/29 07:27:40;;;;;;;2.80;0.90;;;;;;;4.73;52.82;97266.59;4891323;29;20052;-65
2022/03/29 07:30:10;;;;;;;35.78;12.80;;;;;;;4.35;54.24;97265.47;4892543;29;20096;-65
2022/03/29 07:32:46;;;;;;;8.90;4.20;;;;;;;4.14;54.78;97271.09;4899880;29;20104;-66
2022/03/29 07:35:15;;;;;;;5.53;1.73;;;;;;;3.86;54.63;97261.16;4900338;29;20053;-64
2022/03/29 07:37:43;;;;;;;1.90;1.15;;;;;;;3.54;54.95;97265.63;4897289;29;20048;-64
2022/03/29 07:40:12;;;;;;;2.03;1.10;;;;;;;3.40;55.64;97267.91;4900908;29;20076;-65
2022/03/29 07:42:39;;;;;;;1.48;0.90;;;;;;;3.54;55.30;97271.13;4896442;29;20531;-65
2022/03/29 07:45:10;;;;;;;3.00;1.10;;;;;;;3.75;54.72;97269.06;4895739;29;20048;-65
2022/03/29 07:47:38;;;;;;;3.05;0.98;;;;;;;3.74;53.83;97270.22;4893314;29;20053;-66
2022/03/29 07:50:26;;;;;;;4.75;0.90;;;;;;;3.92;54.33;97277.09;4880296;29;20044;-65
2022/03/29 07:52:59;;;;;;;2.00;1.10;;;;;;;4.37;52.72;97265.91;4898860;29;20060;-65
2022/03/29 07:55:27;;;;;;;3.17;1.40;;;;;;;4.47;52.63;97285.47;4895240;29;20516;-65
2022/03/29 07:58:08;;;;;;;1.80;1.00;;;;;;;4.29;52.65;97275.13;4904103;29;20052;-65
2022/03/29 08:00:36;;;;;;;2.15;1.23;;;;;;;4.13;53.14;97283.25;4890971;29;20192;-66
2022/03/29 08:03:10;;;;;;;1.42;1.00;;;;;;;4.04;53.34;97288.09;4914181;29;20056;-65
2022/03/29 08:05:41;;;;;;;2.90;1.48;;;;;;;4.09;53.52;97290.63;4909675;29;20116;-65
2022/03/29 08:08:11;;;;;;;3.67;1.30;;;;;;;4.11;53.22;97304.81;4896662;29;20048;-65
2022/03/29 08:10:39;;;;;;;4.05;1.17;;;;;;;4.00;53.58;97306.44;4906906;29;20061;-64
2022/03/29 08:13:07;;;;;;;3.63;1.27;;;;;;;3.95;53.65;97320.41;4914318;29;20062;-66
2022/03/29 08:15:35;;;;;;;1.98;1.10;;;;;;;3.82;53.63;97321.53;4911464;29;20439;-69
2022/03/29 08:18:05;;;;;;;;;;;;;;;3.60;54.16;97330.22;4914130;29;20056;-65
2022/03/29 08:20:33;;;;;;;1.80;1.08;;;;;;;3.59;54.18;97336.88;4911498;29;20072;-64
2022/03/29 08:23:00;;;;;;;3.13;1.27;;;;;;;3.55;53.18;97333.19;4905630;29;20087;-64
2022/03/29 08:25:32;;;;;;;2.03;1.20;;;;;;;3.76;52.49;97333.91;4895871;29;20156;-65
2022/03/29 08:28:00;;;;;;;2.13;0.90;;;;;;;4.00;52.26;97339.44;4892734;29;20052;-65
2022/03/29 08:30:29;;;;;;;2.95;1.20;;;;;;;4.02;51.52;97339.88;4898327;29;20520;-65
2022/03/29 08:32:59;;;;;;;96.50;26.58;;;;;;;4.05;51.53;97336.44;4896992;29;20415;-65
2022/03/29 08:35:29;;;;;;;4.10;2.15;;;;;;;3.94;51.07;97343.56;4898541;29;20535;-65
2022/03/29 08:37:57;;;;;;;2.97;1.30;;;;;;;3.93;51.71;97343.91;4911049;29;20468;-65
2022/03/29 08:40:45;;;;;;;5.38;1.33;;;;;;;4.00;51.58;97344.94;4902693;29;20059;-65
2022/03/29 08:43:14;;;;;;;1.58;0.93;;;;;;;3.76;52.14;97350.41;4897682;29;20489;-66
2022/03/29 08:45:47;;;;;;;1.30;1.00;;;;;;;3.64;52.35;97348.44;4895186;29;20049;-65
2022/03/29 08:48:14;;;;;;;1.15;0.80;;;;;;;3.66;52.33;97353.59;4909372;29;20134;-66
2022/03/29 08:50:42;;;;;;;3.67;1.23;;;;;;;3.58;52.14;97360.00;4910810;29;20052;-64
2022/03/29 08:53:11;;;;;;;2.22;1.27;;;;;;;3.49;51.54;97367.53;4899110;29;20063;-63
2022/03/29 08:55:42;;;;;;;3.25;1.50;;;;;;;3.33;52.71;97374.81;4900892;29;20139;-63
2022/03/29 08:58:11;;;;;;;2.92;1.60;;;;;;;3.54;52.42;97372.81;4905926;29;20515;-64
2022/03/29 09:00:38;;;;;;;3.35;1.40;;;;;;;3.83;52.18;97367.16;4903497;29;20060;-64
2022/03/29 09:03:07;;;;;;;3.38;1.10;;;;;;;3.91;51.28;97371.75;4899548;29;20052;-64
2022/03/29 09:05:34;;;;;;;2.10;1.02;;;;;;;3.92;51.56;97381.59;4898943;29;20048;-63
2022/03/29 09:08:08;;;;;;;2.58;1.08;;;;;;;3.92;51.65;97378.03;4916521;29;20575;-63
2022/03/29 09:10:40;;;;;;;2.40;1.30;;;;;;;3.67;52.15;97379.94;4900251;29;20139;-63
2022/03/29 09:13:23;;;;;;;2.28;1.27;;;;;;;3.66;51.90;97389.34;4899062;29;20472;-64
2022/03/29 09:15:52;;;;;;;2.65;1.60;;;;;;;3.75;52.30;97382.63;4897978;29;20064;-66
2022/03/29 09:18:19;;;;;;;3.17;1.42;;;;;;;3.78;52.35;97390.19;4898929;29;20048;-63
2022/03/29 09:21:05;;;;;;;5.70;3.25;;;;;;;3.77;52.60;97391.31;4900756;29;20501;-64
2022/03/29 09:23:32;;;;;;;2.67;1.40;;;;;;;3.62;52.12;97391.97;4899574;29;20059;-63
2022/03/29 09:26:00;;;;;;;4.75;1.60;;;;;;;3.53;53.05;97401.47;4912043;29;20076;-64
2022/03/29 09:28:38;;;;;;;2.15;1.27;;;;;;;3.64;52.49;97408.13;4909073;29;20102;-64
2022/03/29 09:31:22;;;;;;;2.80;1.60;;;;;;;3.68;52.56;97414.56;4912866;29;20059;-63
2022/03/29 09:33:51;;;;;;;4.90;1.30;;;;;;;3.70;52.90;97418.56;4904185;29;20051;-64
2022/03/29 09:36:20;;;;;;;4.07;1.55;;;;;;;3.76;52.87;97421.88;4903355;29;20112;-65
2022/03/29 09:38:51;;;;;;;2.03;1.20;;;;;;;3.58;52.78;97413.03;4909037;29;20103;-63
2022/03/29 09:41:20;;;;;;;2.80;1.50;;;;;;;3.61;53.19;97414.28;4904076;29;20629;-63
2022/03/29 09:44:08;;;;;;;4.40;1.55;;;;;;;3.84;53.24;97412.75;4897655;29;20083;-64
2022/03/29 09:46:54;;;;;;;3.08;1.45;;;;;;;4.01;52.30;97407.06;4898430;29;20079;-63
2022/03/29 09:49:21;;;;;;;5.53;1.73;;;;;;;4.03;52.06;97410.28;4903815;29;20089;-63
2022/03/29 09:52:08;;;;;;;2.70;1.50;;;;;;;4.29;52.02;97423.72;4900702;29;20497;-63
2022/03/29 09:54:36;;;;;;;3.13;1.38;;;;;;;4.17;52.16;97427.25;4905359;29;20068;-64
2022/03/29 09:57:04;;;;;;;3.13;1.52;;;;;;;3.81;52.73;97427.19;4916032;29;20489;-64
2022/03/29 09:59:36;;;;;;;3.35;1.63;;;;;;;3.52;53.83;97439.13;4914002;29;20178;-64
2022/03/29 10:02:03;;;;;;;2.55;1.50;;;;;;;3.42;54.00;97438.75;4892789;29;20060;-64
2022/03/29 10:04:30;;;;;;;3.00;1.45;;;;;;;3.59;53.89;97433.09;4900491;29;20440;-64
2022/03/29 10:07:03;;;;;;;3.10;1.40;;;;;;;3.58;53.00;97436.97;4906940;29;20505;-63
2022/03/29 10:09:35;;;;;;;3.22;1.70;;;;;;;3.69;52.75;97438.16;4906693;29;20048;-64
2022/03/29 10:12:07;;;;;;;2.53;1.40;;;;;;;3.69;52.42;97433.47;4897845;29;20465;-65
2022/03/29 10:14:36;;;;;;;3.28;1.45;;;;;;;3.46;53.12;97439.66;4895697;29;20060;-63
2022/03/29 10:17:06;;;;;;;2.67;1.88;;;;;;;3.30;53.15;97452.44;4905884;29;20111;-63
2022/03/29 10:19:44;;;;;;;2.05;1.10;;;;;;;3.36;52.89;97442.84;4901392;29;20235;-63
2022/03/29 10:22:12;;;;;;;2.35;1.17;;;;;;;3.41;52.42;97437.94;4905711;29;20053;-64
2022/03/29 10:24:39;;;;;;;2.83;1.60;;;;;;;3.56;52.26;97439.25;4901933;29;20523;-64
2022/03/29 10:27:07;;;;;;;7.30;1.52;;;;;;;3.67;52.05;97440.41;4897632;29;20411;-63
2022/03/29 10:29:40;;;;;;;3.20;1.77;;;;;;;3.72;52.13;97448.47;4903238;29;20040;-63
2022/03/29 10:32:07;;;;;;;3.47;1.45;;;;;;;3.70;52.24;97443.31;4895595;29;20049;-63
2022/03/29 10:34:39;;;;;;;3.40;1.50;;;;;;;3.62;52.42;97443.41;4897982;29;20040;-63
2022/03/29 10:37:19;;;;;;;4.47;1.65;;;;;;;3.46;52.68;97439.66;4897240;29;20139;-64
2022/03/29 10:40:00;;;;;;;5.32;1.35;;;;;;;3.56;52.35;97444.75;4909325;29;20052;-63
2022/03/29 10:42:36;;;;;;;2.83;2.05;;;;;;;3.67;52.18;97437.66;4903877;29;20051;-62
2022/03/29 10:45:16;;;;;;;3.50;1.60;;;;;;;3.67;52.48;97454.97;4894755;29;20064;-64
2022/03/29 10:48:05;;;;;;;2.35;1.30;;;;;;;3.53;52.70;97468.22;4901735;29;20135;-64
2022/03/29 10:50:51;;;;;;;4.00;1.83;;;;;;;3.51;52.54;97459.50;4915714;29;20087;-64
2022/03/29 10:53:30;;;;;;;1.98;1.25;;;;;;;3.67;52.49;97462.41;4897789;29;20104;-63
2022/03/29 10:56:13;;;;;;;3.28;1.40;;;;;;;3.72;52.77;97463.03;4897181;29;20049;-65
2022/03/29 10:59:00;;;;;;;5.22;1.85;;;;;;;3.60;52.77;97462.97;4897916;29;20071;-63
2022/03/29 11:01:27;;;;;;;2.20;1.30;;;;;;;3.57;53.05;97452.66;4891911;29;20060;-64
2022/03/29 11:04:26;;;;;;;3.22;1.30;;;;;;;3.54;52.81;97449.78;4915327;29;20060;-63
2022/03/29 11:07:06;;;;;;;9.38;1.50;;;;;;;3.58;52.87;97454.25;4915314;29;20075;-65
2022/03/29 11:09:34;;;;;;;3.72;1.83;;;;;;;3.55;52.88;97456.88;4907370;29;20084;-64
2022/03/29 11:12:03;;;;;;;2.00;1.33;;;;;;;3.48;53.07;97454.69;4904143;29;20056;-66
2022/03/29 11:14:30;;;;;;;3.13;1.52;;;;;;;3.52;53.23;97452.06;4898434;29;20497;-65
2022/03/29 11:17:08;;;;;;;1.92;1.27;;;;;;;3.68;52.49;97447.53;4893807;29;20108;-65
2022/03/29 11:19:46;;;;;;;2.70;1.70;;;;;;;3.70;52.41;97454.31;4896283;29;20057;-63
2022/03/29 11:22:22;;;;;;;3.10;1.42;;;;;;;3.68;52.54;97453.03;4935882;23;20063;-66
2022/03/29 11:24:50;;;;;;;3.40;1.50;;;;;;;3.80;52.43;97456.63;4914175;29;20096;-65
2022/03/29 11:27:28;;;;;;;3.03;1.55;;;;;;;3.67;52.25;97474.22;4908774;29;20055;-64
2022/03/29 11:29:56;;;;;;;3.85;2.08;;;;;;;3.61;52.31;97472.00;4914311;29;20048;-63
2022/03/29 11:32:24;;;;;;;2.72;1.92;;;;;;;3.63;52.16;97473.31;4910516;29;20115;-67
2022/03/29 11:34:53;;;;;;;3.85;1.58;;;;;;;3.63;52.13;97478.00;4912045;29;20060;-66
2022/03/29 11:37:30;;;;;;;2.65;1.73;;;;;;;3.40;52.28;97480.28;4893516;29;20567;-66
2022/03/29 11:40:05;;;;;;;4.13;1.85;;;;;;;3.36;52.37;97470.31;4915535;29;20055;-62
2022/03/29 11:42:45;;;;;;;4.43;1.90;;;;;;;3.32;52.16;97472.13;4907848;29;20435;-66
2022/03/29 11:45:14;;;;;;;4.20;1.63;;;;;;;3.23;52.46;97480.44;4913572;29;20044;-66
2022/03/29 11:47:55;;;;;;;3.35;1.55;;;;;;;3.19;52.71;97485.00;4896030;29;20075;-66
2022/03/29 11:50:33;;;;;;;3.10;1.77;;;;;;;3.27;52.46;97491.56;4913165;29;20040;-66
2022/03/29 11:53:00;;;;;;;5.80;1.80;;;;;;;3.20;52.77;97491.31;4914690;29;20052;-63
2022/03/29 11:55:30;;;;;;;;;;;;;;;3.13;52.83;97485.53;4915253;29;20064;-63
2022/03/29 11:57:57;;;;;;;4.60;1.15;;;;;;;3.01;52.69;97489.00;4914879;29;19927;-63
2022/03/29 12:00:28;;;;;;;2.38;1.30;;;;;;;3.02;52.76;97492.56;4911877;29;20150;-63
2022/03/29 12:02:56;;;;;;;1.77;1.20;;;;;;;3.03;52.46;97502.41;4907322;29;20052;-62